Latest Weather Observations for Ballina

IDN60801

Issued at 7:52 pm EST Wednesday 12 August 2020 (issued every 10 minutes, with the page automatically refreshed every 10 minutes)

About weather observations | Map of weather stations | Latest weather observations for NSW | Other Formats
Station Details ID: 058198 Name: BALLINA AIRPORT AWS Lat: -28.84 Lon: 153.56 Height: 1.3 m
Data from the previous 72 hours. | See also: Recent months at Ballina
Date/Time
EST
Temp
°C
App
Temp
°C
Dew
Point
°C
Rel
Hum
%
Delta-T
°C
Wind Press
QNH
hPa
Press
MSL
hPa
Rain since
9am
mm
Dir  Spd
km/h
Gust
km/h
Spd
kts
Gust
kts
12/07:30pm 17.1 15.1 13.8 81 1.9 N 17 24 9 13 1016.3 1016.3 0.0
12/07:00pm 17.3 15.3 13.8 80 2.0 N 17 24 9 13 1015.8 1015.8 0.0
12/06:30pm 17.6 15.6 13.9 79 2.1 N 17 22 9 12 1015.7 1015.7 0.0
12/06:00pm 17.7 15.3 13.8 78 2.2 NNE 19 28 10 15 1015.1 1015.1 0.0
12/05:30pm 17.9 15.7 13.4 75 2.5 NNE 17 26 9 14 1015.1 1015.1 0.0
12/05:00pm 18.6 15.7 13.9 74 2.7 NNE 22 33 12 18 1014.9 1014.9 0.0
12/04:30pm 19.2 16.0 14.2 73 2.9 NNE 24 39 13 21 1014.9 1014.9 0.0
12/04:00pm 19.7 16.5 14.3 71 3.1 NNE 24 37 13 20 1015.0 1015.0 0.0
12/03:30pm 20.2 17.7 14.1 68 3.5 NNE 20 28 11 15 1015.0 1015.0 0.0
12/03:00pm 20.5 17.5 13.7 65 3.9 NNE 22 32 12 17 1015.3 1015.3 0.0
12/02:30pm 20.6 17.6 13.8 65 3.9 NNE 22 28 12 15 1015.4 1015.4 0.0
12/02:00pm 20.8 17.8 14.9 69 3.5 NE 24 32 13 17 1015.6 1015.6 0.0
12/01:30pm 20.5 16.9 14.2 67 3.7 NE 26 33 14 18 1016.0 1016.0 0.0
12/01:00pm 20.9 18.0 15.0 69 3.5 NE 24 33 13 18 1016.2 1016.2 0.0
12/12:30pm 20.7 17.8 15.0 70 3.4 NE 24 32 13 17 1017.2 1017.2 0.0
12/12:00pm 20.5 17.6 13.9 66 3.8 NE 22 28 12 15 1017.9 1017.9 0.0
12/11:30am 19.5 17.7 13.4 68 3.5 NE 15 20 8 11 1018.6 1018.6 0.0
12/11:00am 20.5 19.4 14.4 68 3.5 NE 13 20 7 11 1019.2 1019.2 0.0
12/10:30am 20.2 18.8 13.4 65 3.9 NE 13 17 7 9 1019.7 1019.7 0.0
12/10:00am 19.7 19.0 13.2 66 3.7 N 9 15 5 8 1020.1 1020.1 0.0
12/09:30am 18.9 19.7 13.7 72 3.0 NNW 2 7 1 4 1020.4 1020.4 0.0
12/09:00am 16.9 17.7 13.6 81 1.9 N 2 6 1 3 1020.5 1020.5 0.0
12/08:30am 16.1 17.0 13.0 82 1.7 CALM 0 0 0 0 1020.3 1020.3 0.0
12/08:00am 14.4 15.4 13.1 92 0.7 CALM 0 0 0 0 1020.4 1020.4 0.0
12/07:30am 12.6 13.2 12.0 96 0.3 CALM 0 0 0 0 1020.0 1020.0 0.0
12/07:00am 10.8 10.2 10.3 97 0.3 ENE 4 6 2 3 1019.6 1019.6 0.0
12/06:30am 10.2 10.1 9.6 96 0.3 CALM 0 0 0 0 1019.0 1019.0 0.0
12/06:00am 10.2 9.0 9.6 96 0.3 ENE 6 7 3 4 1019.0 1019.0 0.0
12/05:30am 10.2 10.1 9.6 96 0.3 CALM 0 0 0 0 1018.7 1018.7 0.0
12/05:00am 10.9 11.0 10.3 96 0.3 CALM 0 6 0 3 1018.4 1018.4 0.0
12/04:30am 10.6 9.8 9.8 95 0.4 NE 4 7 2 4 1018.1 1018.1 0.0
12/04:00am 10.7 10.7 9.9 95 0.4 CALM 0 6 0 3 1018.5 1018.5 0.0
12/03:30am 11.0 10.0 10.4 96 0.3 NW 6 9 3 5 1018.7 1018.7 0.0
12/03:00am 10.9 10.7 10.3 96 0.3 N 2 6 1 3 1018.4 1018.4 0.0
12/02:30am 10.5 9.3 9.6 94 0.5 N 6 7 3 4 1018.9 1018.9 0.0
12/02:00am 11.3 11.1 10.4 94 0.5 NW 2 6 1 3 1018.8 1018.8 0.0
12/01:30am 11.7 11.6 10.8 94 0.5 N 2 9 1 5 1018.8 1018.8 0.0
12/01:00am 11.8 11.3 10.9 94 0.5 N 4 6 2 3 1019.0 1019.0 0.0
12/12:30am 12.5 12.9 11.4 93 0.6 CALM 0 6 0 3 1018.8 1018.8 0.0
12/12:00am 12.9 12.4 12.1 95 0.4 NW 6 9 3 5 1018.8 1018.8 0.0
 
Date/Time
EST
Temp
°C
App
Temp
°C
Dew
Point
°C
Rel
Hum
%
Delta-T
°C
Wind Press
QNH
hPa
Press
MSL
hPa
Rain since
9am
mm
Dir  Spd
km/h
Gust
km/h
Spd
kts
Gust
kts
11/11:30pm 12.4 11.5 11.5 94 0.5 NW 7 9 4 5 1018.9 1018.9 0.0
11/11:00pm 12.0 11.2 11.1 94 0.5 NW 6 7 3 4 1019.0 1019.0 0.0
11/10:30pm 11.7 11.5 10.6 93 0.6 NW 2 6 1 3 1019.0 1019.0 0.0
11/10:00pm 11.2 9.9 10.1 93 0.6 NW 7 7 4 4 1019.0 1019.0 0.0
11/09:30pm 11.7 10.6 10.6 93 0.6 NW 7 9 4 5 1019.0 1019.0 0.0
11/09:00pm 11.8 10.9 10.7 93 0.6 NW 6 7 3 4 1019.2 1019.2 0.0
11/08:30pm 12.1 11.2 10.8 92 0.7 WNW 6 7 3 4 1019.1 1019.1 0.0
11/08:00pm 12.4 11.6 11.0 91 0.7 WNW 6 9 3 5 1018.9 1018.9 0.0
11/07:30pm 13.7 12.8 11.2 85 1.3 SW 7 13 4 7 1018.9 1018.9 0.0
11/07:00pm 14.4 13.4 11.0 80 1.8 SSW 7 11 4 6 1018.8 1018.8 0.0
11/06:30pm 16.1 15.4 12.1 77 2.2 SW 7 15 4 8 1018.5 1018.5 0.0
11/06:00pm 16.9 15.2 12.4 75 2.5 SSW 13 20 7 11 1018.2 1018.2 0.0
11/05:30pm 16.8 14.6 12.1 74 2.6 S 15 20 8 11 1017.8 1017.8 0.0
11/05:00pm 17.2 14.6 12.1 72 2.8 SSW 17 24 9 13 1017.4 1017.4 0.0
11/04:30pm 17.8 14.3 12.3 70 3.0 SSW 22 32 12 17 1017.3 1017.3 0.0
11/04:00pm 18.0 14.1 12.0 68 3.3 SSW 24 33 13 18 1017.1 1017.1 0.0
11/03:30pm 18.6 14.3 12.1 66 3.6 S 26 35 14 19 1016.9 1016.9 0.0
11/03:00pm 18.7 14.4 12.0 65 3.7 SSW 26 35 14 19 1017.2 1017.2 0.0
11/02:30pm 18.0 14.7 11.6 66 3.5 SSW 20 33 11 18 1017.4 1017.4 0.0
11/02:00pm 18.0 14.8 13.1 73 2.7 SSW 22 33 12 18 1017.3 1017.3 0.0
11/01:30pm 18.2 13.8 11.7 66 3.6 SSW 26 39 14 21 1017.3 1017.3 0.0
11/01:00pm 18.6 14.9 12.8 69 3.2 SSW 24 35 13 19 1017.3 1017.3 0.0
11/12:30pm 18.3 14.7 11.8 66 3.6 SSW 22 33 12 18 1017.9 1017.9 0.0
11/12:00pm 18.0 13.7 12.0 68 3.3 SSW 26 41 14 22 1018.1 1018.1 0.0
11/11:30am 18.7 14.1 12.2 66 3.6 S 28 44 15 24 1018.2 1018.2 0.0
11/11:08am 18.2 13.4 11.7 66 3.6 SSW 28 46 15 25 1018.5 1018.5 0.0
11/11:00am 18.3 13.2 11.8 66 3.6 SSW 30 46 16 25 1018.5 1018.5 0.0
11/10:34am 18.4 13.5 11.2 63 3.9 SSW 28 46 15 25 1018.3 1018.3 0.0
11/10:30am 18.2 12.5 11.0 63 3.9 SSW 32 46 17 25 1018.3 1018.3 0.0
11/10:14am 18.0 12.7 11.1 64 3.7 SSW 30 48 16 26 1018.4 1018.4 0.0
11/10:00am 17.8 13.0 10.4 62 3.9 SSW 26 44 14 24 1018.6 1018.6 0.0
11/09:30am 17.1 12.5 9.8 62 3.8 SW 24 39 13 21 1018.7 1018.7 0.0
11/09:00am 16.5 12.1 9.0 61 3.9 SW 22 33 12 18 1018.6 1018.6 0.0
11/08:30am 15.7 11.5 8.2 61 3.8 SW 20 32 11 17 1018.7 1018.7 0.0
11/08:00am 15.5 10.9 8.0 61 3.8 WSW 22 37 12 20 1018.6 1018.6 0.0
11/07:30am 15.0 10.9 8.0 63 3.5 WSW 19 26 10 14 1018.2 1018.2 0.0
11/07:00am 14.0 9.6 7.5 65 3.2 WSW 20 28 11 15 1017.9 1017.9 0.0
11/06:30am 13.9 9.6 7.7 66 3.1 WSW 20 26 11 14 1017.2 1017.2 0.0
11/06:00am 14.1 9.7 7.4 64 3.3 WSW 20 28 11 15 1016.7 1016.7 0.0
11/05:30am 14.6 9.8 7.2 61 3.6 WSW 22 30 12 16 1016.4 1016.4 0.0
11/05:00am 14.5 10.0 7.1 61 3.6 W 20 26 11 14 1015.8 1015.8 0.0
11/04:30am 14.4 10.5 7.2 62 3.5 WSW 17 22 9 12 1015.4 1015.4 0.0
11/04:00am 14.5 10.2 6.8 60 3.7 WSW 19 26 10 14 1015.1 1015.1 0.0
11/03:30am 14.3 9.8 6.9 61 3.6 WSW 20 30 11 16 1014.9 1014.9 0.0
11/03:00am 14.1 9.8 6.9 62 3.5 WSW 19 22 10 12 1014.7 1014.7 0.0
11/02:30am 13.5 9.1 6.6 63 3.3 WSW 19 24 10 13 1014.5 1014.5 0.0
11/02:00am 13.5 9.0 6.1 61 3.5 WSW 19 24 10 13 1014.5 1014.5 0.0
11/01:30am 13.6 8.9 6.0 60 3.6 WSW 20 26 11 14 1014.6 1014.6 0.0
11/01:00am 14.2 9.7 6.1 58 3.9 WSW 19 24 10 13 1014.7 1014.7 0.0
11/12:30am 14.6 9.5 6.2 57 4.0 WSW 22 32 12 17 1014.7 1014.7 0.0
11/12:00am 14.5 9.9 6.3 58 3.9 WSW 20 32 11 17 1014.7 1014.7 0.0
 
Date/Time
EST
Temp
°C
App
Temp
°C
Dew
Point
°C
Rel
Hum
%
Delta-T
°C
Wind Press
QNH
hPa
Press
MSL
hPa
Rain since
9am
mm
Dir  Spd
km/h
Gust
km/h
Spd
kts
Gust
kts
10/11:30pm 14.2 9.1 6.1 58 3.9 WSW 22 30 12 16 1014.7 1014.7 0.0
10/11:00pm 14.5 10.0 6.1 57 4.0 WSW 19 28 10 15 1014.5 1014.5 0.0
10/10:30pm 14.5 9.9 6.6 59 3.8 WSW 20 28 11 15 1014.2 1014.2 0.0
10/10:00pm 14.4 10.1 7.0 61 3.6 WSW 19 24 10 13 1014.0 1014.0 0.0
10/09:30pm 14.6 10.3 7.2 61 3.6 WSW 19 28 10 15 1013.8 1013.8 0.0
10/09:00pm 14.9 10.5 7.5 61 3.7 SW 20 30 11 16 1013.8 1013.8 0.0
10/08:30pm 15.0 10.6 7.5 61 3.7 SW 20 28 11 15 1013.7 1013.7 0.0
10/08:00pm 14.8 10.8 8.1 64 3.4 WSW 19 26 10 14 1013.5 1013.5 0.0
10/07:30pm 15.2 10.6 8.2 63 3.5 WSW 22 32 12 17 1013.2 1013.2 0.0
10/07:00pm 15.4 10.9 8.6 64 3.5 WSW 22 37 12 20 1012.6 1012.6 0.0
10/06:30pm 15.7 11.5 8.4 62 3.7 SW 20 28 11 15 1012.3 1012.3 0.0
10/06:00pm 16.2 11.7 8.4 60 4.0 SW 22 33 12 18 1011.8 1011.8 0.0
10/05:30pm 16.9 12.0 8.3 57 4.4 SW 24 37 13 20 1011.6 1011.6 0.0
10/05:00pm 17.5 10.9 7.8 53 4.9 SW 32 50 17 27 1011.1 1011.1 0.0
10/04:54pm 17.4 11.9 7.7 53 4.9 WSW 26 50 14 27 1010.9 1010.9 0.0
10/04:30pm 17.5 13.3 7.3 51 5.1 WSW 19 28 10 15 1010.5 1010.5 0.0
10/04:00pm 17.2 13.3 7.3 52 5.0 SW 17 24 9 13 1009.8 1009.8 0.0
10/03:30pm 17.8 13.8 6.7 48 5.5 SW 17 24 9 13 1009.5 1009.5 0.0
10/03:00pm 18.4 12.3 4.9 41 6.5 SW 26 33 14 18 1009.1 1009.1 0.0
10/02:30pm 18.2 13.0 5.4 43 6.2 SW 22 32 12 17 1009.1 1009.1 0.0
10/02:00pm 18.2 12.8 4.4 40 6.6 WSW 22 32 12 17 1009.0 1009.0 0.0
10/01:30pm 17.6 12.2 4.6 42 6.2 WSW 22 32 12 17 1009.1 1009.1 0.0
10/01:00pm 17.8 11.5 5.7 45 5.9 WSW 28 37 15 20 1009.3 1009.3 0.0
10/12:30pm 17.2 11.2 5.5 46 5.6 WSW 26 33 14 18 1009.5 1009.5 0.0
10/12:00pm 15.9 11.0 4.9 48 5.2 SW 20 32 11 17 1009.8 1009.8 0.0
10/11:30am 16.4 10.9 5.7 49 5.2 W 24 33 13 18 1010.0 1010.0 0.0
10/11:00am 15.1 9.9 5.6 53 4.5 W 22 32 12 17 1010.5 1010.5 0.0
10/10:30am 15.2 8.8 5.4 52 4.6 W 28 41 15 22 1010.3 1010.3 0.0
10/10:00am 15.0 8.6 5.2 52 4.6 W 28 35 15 19 1010.4 1010.4 0.0
10/09:30am 14.3 7.9 5.1 54 4.3 W 28 41 15 22 1010.9 1010.9 0.0
10/09:00am 13.9 7.6 5.5 57 4.0 W 28 39 15 21 1010.8 1010.8 0.0
10/08:30am 13.2 7.2 5.1 58 3.8 W 26 39 14 21 1010.7 1010.7 0.0
10/08:00am 12.1 7.3 5.7 65 3.0 W 20 35 11 19 1010.7 1010.7 0.0
10/07:30am 12.3 7.7 5.7 64 3.1 W 19 26 10 14 1010.4 1010.4 0.0
10/07:00am 11.5 8.1 6.0 69 2.6 NW 13 19 7 10 1010.2 1010.2 0.0
10/06:30am 9.6 6.5 5.6 76 1.8 WNW 11 15 6 8 1010.2 1010.2 0.0
10/06:00am 8.7 5.6 5.4 80 1.5 W 11 13 6 7 1010.0 1010.0 0.0
10/05:30am 7.9 4.3 5.2 83 1.2 W 13 13 7 7 1009.8 1009.8 0.0
10/05:00am 7.2 3.7 5.5 89 0.8 WNW 13 17 7 9 1009.6 1009.6 0.0
10/04:30am 7.5 4.7 5.0 84 1.1 W 9 11 5 6 1009.7 1009.7 0.0
10/04:00am 8.7 7.5 4.7 76 1.8 CALM 0 0 0 0 1009.7 1009.7 0.0
10/03:30am 10.6 6.3 5.4 70 2.4 WNW 17 24 9 13 1009.5 1009.5 0.0
10/03:00am 8.5 6.7 5.4 81 1.4 NW 4 7 2 4 1009.8 1009.8 0.0
10/02:30am 10.7 7.6 5.7 71 2.3 NW 11 17 6 9 1009.7 1009.7 0.0
10/02:00am 9.9 6.5 5.7 75 1.9 NW 13 17 7 9 1009.9 1009.9 0.0
10/01:30am 10.1 6.7 6.1 76 1.9 NNW 13 15 7 8 1010.3 1010.3 0.0
10/01:00am 9.3 6.8 6.4 82 1.3 NNW 9 11 5 6 1010.5 1010.5 0.0
10/12:30am 9.2 6.9 5.8 79 1.6 NNW 7 11 4 6 1010.7 1010.7 0.0
10/12:00am 8.9 6.8 5.8 81 1.4 NW 6 9 3 5 1011.0 1011.0 0.0
 
Date/Time
EST
Temp
°C
App
Temp
°C
Dew
Point
°C
Rel
Hum
%
Delta-T
°C
Wind Press
QNH
hPa
Press
MSL
hPa
Rain since
9am
mm
Dir  Spd
km/h
Gust
km/h
Spd
kts
Gust
kts
09/11:30pm 9.4 6.8 6.3 81 1.4 NW 9 11 5 6 1011.3 1011.3 0.0
09/11:00pm 8.8 5.9 4.8 76 1.8 NW 9 13 5 7 1011.4 1011.4 0.0
09/10:30pm 10.8 6.8 4.9 67 2.7 NW 15 19 8 10 1011.5 1011.5 0.0
09/10:00pm 10.9 6.8 4.6 65 2.8 WNW 15 19 8 10 1011.7 1011.7 0.0
09/09:30pm 10.9 6.8 4.6 65 2.8 WNW 15 19 8 10 1011.9 1011.9 0.0
09/09:00pm 10.8 7.9 4.5 65 2.8 WNW 9 13 5 7 1012.1 1012.1 0.0
09/08:30pm 11.9 8.5 3.9 58 3.6 WNW 11 17 6 9 1012.0 1012.0 0.0
09/08:00pm 12.7 8.2 4.4 57 3.8 WNW 17 26 9 14 1012.2 1012.2 0.0

Other formats

Comma delimited format used in spreadsheet applications
http://www.bom.gov.au/fwo/IDN60801/IDN60801.94596.axf

JavaScript Object Notation format (JSON) in row-major order
http://www.bom.gov.au/fwo/IDN60801/IDN60801.94596.json

Data quality

Most of these data are generated automatically and are frequently updated. Quality checks on data are not normally performed. It is possible for incorrect values to appear. Refer to information at About Latest Weather Observations and please check the disclaimer before using these data.